Harrison, NY

7:06 AM EST on February 07, 2016 (GMT -0500)
Westchester County | | Change Station
CLOSE
Current Station
Airport
Location: White Plains,
Elevation: 436 ft
Nearby Weather Stations

Elev 436 ft 41.06 °N, 73.70 °W | Updated 10 minutes ago

Clear
Clear
25 °F
Feels Like 25 °F
N
0
Wind Variable Wind from North

Today
High -- | Low -- °F
--% Chance of Precip.
Yesterday
High -- | Low -- °F
Precip. -- in
Pressure 30.20 in
Visibility 10.0 miles
Clouds Clear
Dew Point 21 °F
Humidity 85%
Rainfall 0.00 in
Snow Depth Not available.
6:59 AM 5:18 PM
Waning Crescent, 2% visible
METAR KHPN 071156Z 00000KT 10SM CLR M04/M06 A3017 RMK AO2 SLP225 T10391061 10006 21044 55004
Pressure 30.20 in
Visibility 10.0 miles
Clouds Clear
Dew Point 21 °F
Humidity 85%
Rainfall 0.00 in
Snow Depth Not available.
6:59 AM 5:18 PM
Waning Crescent, 2% visible
METAR KHPN 071156Z 00000KT 10SM CLR M04/M06 A3017 RMK AO2 SLP225 T10391061 10006 21044 55004

10-Day Weather Forecast

Almanac

Astronomy

Feb. 07, 2016 Rise Set
Actual Time
Civil Twilight
Nautical Twilight
Astronomical Twilight
Moon
Length of Visible Light
Length of Day
Tomorrow will be .
, % of the Moon is Illuminated

Today's Extremes

State Highs State Lows

Community

WunderPhotos

Upload Photos

1,891,182 photos uploaded!

WunderBlog® & News

Nearby

Air Quality

  Air Quality AQ Index Pollutant
Not available.

Snow Depth

Station Depth Elevation

Earthquake Activity

City Distance Mag. Time & Date
Minimum magnitude displayed is 2.5.

Coastal Water Temperatures

Place Temperature

Stations

Nearby Weather Stations

Station Location Temp. Windchill Dew Point Humidity Wind Precip. Elev Updated Type
                   

Watches & Warnings

There are currently no watches in effect.